Tiempo atmosférico en la estación meteorológica de Bielsa, Huesca (990 m.)



Fecha
DESCASC
Temp. máxima en grados centígrados (hora)
DESCASC
Temp. mínima en grados centígrados (hora)
DESCASC
Temp. media en grados centígrados
DESCASC
Racha de viento máxima en m/sg (hora)
DESCASC
Velocidad máxima media en intervalos de 10 minutos(hora)
DESCASC
Precipitaciones diarias en mm
DESCASC
Precipitaciones de 00:00 a 06:00 en mm
DESCASC
Precipitaciones de 06:00 a 12:00 en mm
DESCASC
Precipitaciones de 12:00 a 18:00 en mm
DESCASC
Precipitaciones de 18:00 a 24:00 en mm
DESCASC
18-01-2018 11 (14:00) -2 (06:20) 4.5 6.39 (12:50) 2.5 (16:30) 0 0 0 0 0
17-01-2018 11.3 (05:40) -1 (23:59) 5.2 23.61 (07:40) 11.11 (06:40) 0 0 0 0 0
16-01-2018 13.2 (14:10) -2.2 (03:20) 5.5 5.83 (12:10) 2.78 (12:10) 0 0 0 0 0
15-01-2018 7 (14:10) -3 (07:20) 2 5.56 (14:50) 2.22 (14:50) 0 0 0 0 0
14-01-2018 4.8 (13:20) -1.2 (-00:0) 1.8 5 (14:50) 2.22 (14:10) 3.4 2.2 1.2 0 0
13-01-2018 7.2 (14:00) -3.8 (-00:0) 1.7 6.39 (22:40) 3.33 (22:40) 0 0 0 0 0
12-01-2018 8.3 (13:40) -3.1 (-00:0) 2.6 10 (12:30) 4.17 (11:10) 0 0 0 0 0
11-01-2018 5.9 (13:00) -2.6 (-00:0) 1.7 8.61 (17:10) 4.44 (19:50) 0 0 0 0 0
10-01-2018 6.3 (13:20) -2.7 (-00:0) 1.8 8.61 (15:10) 3.33 (15:10) 1.6 0 0 0.2 1.4
09-01-2018 5 (13:30) -4.4 (-00:0) 0.3 6.39 (14:10) 2.78 (13:30) 0 0 0 0 0
08-01-2018 4.7 (14:00) -1.8 (-00:0) 1.4 6.11 (13:10) 3.33 (19:30) 0 0 0 0 0
07-01-2018 4.8 (00:00) 0.4 (00:00) 2.6 6.94 (03:10) 3.33 (10:40) 31.8 23 1.6 7 0.2
06-01-2018 6.3 (13:40) 2.9 (00:00) 4.6 9.17 (22:40) 5.28 (21:00) 5.6 3.2 0.4 1 1
05-01-2018 9.5 (15:00) 0.5 (00:00) 5 7.22 (16:50) 3.61 (17:10) 0.2 0 0 0 0.2
04-01-2018 13 (13:10) 2.5 (08:30) 7.8 8.06 (15:30) 2.78 (16:00) 0 0 0 0 0
03-01-2018 16.3 (14:00) 2.6 (00:00) 9.4 14.17 (13:00) 5.28 (12:50) 0 0 0 0 0
02-01-2018 7.9 (01:10) 1.8 (00:00) 4.9 18.89 (01:10) 6.94 (01:20) 3.6 0.2 0.8 2.4 0.2
01-01-2018 6.7 (23:50) -1.8 (-00:0) 2.4 12.22 (12:00) 6.11 (11:50) 6.2 0.2 0 2.4 3.6
31-12-2017 5.4 (13:50) -1.3 (-00:0) 2.1 7.22 (03:40) 3.06 (03:40) 0.6 0 0 0 0.6
30-12-2017 7.3 (13:00) -1.6 (-00:0) 2.9 7.78 (15:50) 3.89 (15:50) 0.2 0 0.2 0 0
29-12-2017 4.1 (14:50) -1.8 (-00:0) 1.1 6.11 (10:10) 3.33 (10:10) 5.6 0.2 2.4 3 0
28-12-2017 3 (13:20) -2.1 (-00:0) 0.5 6.67 (05:10) 3.33 (05:10) 11.4 1.6 3 4.6 2.2
27-12-2017 1.7 (13:10) -1.7 (-00:0) 0 11.39 (16:10) 4.72 (16:10) 13 2.6 2 5 3.4
26-12-2017 5.4 (12:40) 0.9 (00:00) 3.2 7.78 (19:10) 3.33 (21:40) 2.2 1 0.2 0 1
25-12-2017 11.5 (13:50) -2.4 (-00:0) 4.5 10.28 (19:00) 4.44 (19:30) 0 0 0 0 0
24-12-2017 9.4 (12:30) -1.4 (-00:0) 4 5.56 (20:00) 2.5 (14:00) 0 0 0 0 0

Gráficas

Temp. máximas Temp. mínimas Temp. medias Precipitaciones Rachas de viento máximas Velocidades máximas media en intervalos de 10 minutos

Datos horarios

Fecha y hora oficial Temperatura (ºC) Velocidad del viento (km/h) Dirección del viento Racha (km/h) Dirección de racha Precipitación (mm) Presión (hPa) Tendencia (hPa) Humedad (%)
2018-01-22 23:00:00 10.6 11 Noroeste 31 Noroeste 0 -- -- 37
2018-01-22 22:00:00 10.5 10 Norte 34 Noroeste 0 -- -- 47
2018-01-22 21:00:00 10.6 14 Noroeste 28 Noroeste 0 -- -- 49
2018-01-22 20:00:00 9.7 8 Noroeste 18 Norte 0 -- -- 56
2018-01-22 19:00:00 10.9 9 Noroeste 37 Noroeste 0 -- -- 50
2018-01-22 18:00:00 13.4 19 Noroeste 51 Norte 0 -- -- 39
2018-01-22 17:00:00 14.3 18 Noroeste 42 Noroeste 0 -- -- 28
2018-01-22 16:00:00 15.3 16 Noroeste 39 Noroeste 0 -- -- 24
2018-01-22 15:00:00 13.5 5 Sudeste 14 Sudeste 0 -- -- 53
2018-01-22 14:00:00 16.2 5 Sudeste 15 Este 0 -- -- 39
2018-01-22 13:00:00 15.9 5 Sudeste 14 Sudeste 0 -- -- 33
2018-01-22 12:00:00 14.6 6 Sudeste 20 Sudeste 0 -- -- 34
2018-01-22 11:00:00 11.3 4 Sudeste 10 Sudeste 0 -- -- 49
2018-01-22 10:00:00 3.4 0 Calma 6 Oeste 0 -- -- 79
2018-01-22 09:00:00 3.4 2 Sudeste 11 Norte 0 -- -- 74
2018-01-22 08:00:00 5.7 7 Noroeste 18 Noroeste 0 -- -- 60
2018-01-22 07:00:00 6 7 Noroeste 18 Norte 0 -- -- 59
2018-01-22 06:00:00 6.5 6 Noroeste 16 Norte 0 -- -- 57
2018-01-22 05:00:00 7.6 9 Noroeste 26 Norte 0 -- -- 53
2018-01-22 04:00:00 7.8 14 Noroeste 25 Noroeste 0 -- -- 54
2018-01-22 03:00:00 8.1 12 Noroeste 28 Noroeste 0 -- -- 54
2018-01-22 02:00:00 8.5 12 Noroeste 24 Norte 0 -- -- 55
2018-01-22 01:00:00 4.9 2 Noroeste 9 Oeste 0 -- -- 81
2018-01-22 00:00:00 5.9 4 Noroeste 13 Noroeste 0 -- -- 79
2018-01-21 23:00:00 7.8 2 Norte 16 Sudeste 0 -- -- 68
2018-01-21 22:00:00 8.7 3 Sur 24 Norte 0 -- -- 66
2018-01-21 21:00:00 9.7 10 Noroeste 24 Norte 0 -- -- 63
2018-01-21 20:00:00 11.3 9 Noroeste 25 Norte 0 -- -- 57
2018-01-21 19:00:00 12.6 10 Noroeste 27 Noroeste 0 -- -- 52
2018-01-21 18:00:00 13.2 13 Noroeste 34 Noroeste 0 -- -- 51
2018-01-21 17:00:00 13.5 16 Noroeste 37 Noroeste 0 -- -- 51
2018-01-21 16:00:00 13.6 15 Noroeste 41 Norte 0 -- -- 52
2018-01-21 15:00:00 14 18 Noroeste 45 Noroeste 0 -- -- 50
2018-01-21 14:00:00 15.1 21 Noroeste 42 Noroeste 0 -- -- 51
2018-01-21 13:00:00 13.4 15 Noroeste 38 Norte 0 -- -- 61
2018-01-21 12:00:00 10.9 3 Sudoeste 15 Este 0 -- -- 92
2018-01-21 11:00:00 9.5 4 Sudeste 20 Norte 0 -- -- 97
2018-01-21 10:00:00 7.3 2 Norte 14 Nordeste 0.2 -- -- 98
2018-01-21 09:00:00 5.9 4 Noroeste 10 Noroeste 0 -- -- 98
2018-01-21 08:00:00 5.7 3 Nordeste 14 Sudeste 0.4 -- -- 98
2018-01-21 07:00:00 6 3 Noroeste 9 Nordeste 0.2 -- -- 98
2018-01-21 06:00:00 6.2 3 Norte 10 Norte 0.2 -- -- 98
2018-01-21 05:00:00 6.1 3 Sudoeste 13 Nordeste 0.6 -- -- 98
2018-01-21 04:00:00 6.2 2 Sudeste 9 Sur 0.2 -- -- 98
2018-01-21 03:00:00 6.2 3 Este 8 Nordeste 0 -- -- 98
2018-01-21 02:00:00 5.9 2 Este 9 Este 0.2 -- -- 98
2018-01-21 01:00:00 5.9 3 Norte 10 Norte 0.2 -- -- 98
2018-01-21 00:00:00 6 4 Noroeste 10 Nordeste 0.4 -- -- 98
2018-01-20 23:00:00 6.2 3 Sudeste 8 Sudoeste 0.2 -- -- 98
2018-01-20 22:00:00 6 4 Oeste 13 Nordeste 0.6 -- -- 98
2018-01-20 21:00:00 6.4 4 Sudeste 11 Este 0.8 -- -- 98
2018-01-20 20:00:00 6.2 5 Sudeste 10 Sudeste 0.4 -- -- 98
2018-01-20 19:00:00 5.9 3 Este 9 Este 0.2 -- -- 97
2018-01-20 18:00:00 6.4 3 Sudeste 7 Norte 0.2 -- -- 93
2018-01-20 17:00:00 7.5 2 Sudeste 8 Noroeste 0 -- -- 85
2018-01-20 16:00:00 8.6 2 Sudeste 6 Norte 0 -- -- 70
2018-01-20 15:00:00 8.7 3 Norte 9 Noroeste 0 -- -- 63
2018-01-20 14:00:00 8.1 3 Este 14 Nordeste 0 -- -- 62
2018-01-20 13:00:00 7.1 3 Noroeste 10 Norte 0 -- -- 56
2018-01-20 12:00:00 6.5 5 Noroeste 15 Nordeste 0 -- -- 54
2018-01-20 11:00:00 5.1 3 Sudeste 9 Sur 0 -- -- 62
2018-01-20 10:00:00 3.2 5 Norte 12 Este 0 -- -- 66
2018-01-20 09:00:00 1.5 3 Sur 9 Noroeste 0 -- -- 79
2018-01-20 08:00:00 1.2 5 Norte 14 Nordeste 0 -- -- 76
2018-01-20 07:00:00 0.5 3 Norte 14 Nordeste 0 -- -- 80
2018-01-20 06:00:00 -0.3 4 Este 13 Nordeste 0 -- -- 82
2018-01-20 05:00:00 0.3 2 Noroeste 14 Nordeste 0 -- -- 80
2018-01-20 04:00:00 1.1 3 Noroeste 12 Noroeste 0 -- -- 76
2018-01-20 03:00:00 0.7 3 Sudeste 8 Noroeste 0 -- -- 79
2018-01-20 02:00:00 0.6 2 Este 13 Nordeste 0 -- -- 79
2018-01-20 01:00:00 0.6 3 Noroeste 8 Oeste 0 -- -- 80
2018-01-20 00:00:00 1.2 3 Noroeste 13 Nordeste 0 -- -- 76
2018-01-19 23:00:00 1.8 3 Noroeste 15 Nordeste 0 -- -- 75
2018-01-19 22:00:00 3 2 Sudeste 11 Este 0 -- -- 67
2018-01-19 21:00:00 6.1 7 Noroeste 22 Noroeste 0 -- -- 48
2018-01-19 20:00:00 5.1 8 Noroeste 18 Norte 0 -- -- 55
2018-01-19 19:00:00 6.2 10 Norte 21 Noroeste 0 -- -- 48
2018-01-19 18:00:00 7.5 9 Noroeste 28 Noroeste 0 -- -- 47
2018-01-19 17:00:00 9.1 18 Noroeste 33 Noroeste 0 -- -- 41
2018-01-19 16:00:00 9.3 18 Noroeste 40 Noroeste 0 -- -- 37
2018-01-19 15:00:00 10.2 19 Noroeste 41 Noroeste 0 -- -- 35
2018-01-19 14:00:00 12 16 Noroeste 45 Noroeste 0 -- -- 33
2018-01-19 13:00:00 11.5 25 Noroeste 48 Noroeste 0 -- -- 34
2018-01-19 12:00:00 11.9 17 Noroeste 30 Noroeste 0 -- -- 31
2018-01-19 11:00:00 10.5 11 Noroeste 27 Noroeste 0 -- -- 37
2018-01-19 10:00:00 0 3 Sudeste 13 Nordeste 0 -- -- 84
2018-01-19 09:00:00 -0.6 4 Noroeste 14 Nordeste 0 -- -- 85
2018-01-19 08:00:00 0.2 4 Noroeste 15 Noroeste 0 -- -- 75
2018-01-19 07:00:00 0 6 Noroeste 15 Noroeste 0 -- -- 78
2018-01-19 06:00:00 -0.1 5 Noroeste 15 Noroeste 0 -- -- 81
2018-01-19 05:00:00 -0.4 3 Noroeste 15 Nordeste 0 -- -- 90
2018-01-19 04:00:00 -0.5 3 Norte 12 Noroeste 0 -- -- 92
2018-01-19 03:00:00 -0.3 4 Noroeste 18 Oeste 0 -- -- 94
2018-01-19 02:00:00 -0.3 5 Noroeste 14 Noroeste 0 -- -- 91
2018-01-19 01:00:00 -0.8 0 Calma 16 Este 0 -- -- 92
2018-01-19 00:00:00 -0.6 3 Noroeste 14 Este 0 -- -- 91
2018-01-18 23:00:00 -0.7 0 Calma 14 Nordeste 0 -- -- 92
2018-01-18 22:00:00 -0.5 2 Noroeste 14 Nordeste 0 -- -- 90
2018-01-18 21:00:00 -0.1 2 Noroeste 14 Nordeste 0 -- -- 89
2018-01-18 20:00:00 0.4 2 Noroeste 14 Nordeste 0 -- -- 83
2018-01-18 19:00:00 1.1 3 Norte 16 Nordeste 0 -- -- 83
2018-01-18 18:00:00 2.3 5 Noroeste 20 Norte 0 -- -- 76
2018-01-18 17:00:00 3.6 6 Noroeste 18 Norte 0 -- -- 69
2018-01-18 16:00:00 4.4 8 Noroeste 14 Noroeste 0 -- -- 67
2018-01-18 15:00:00 4.8 3 Noroeste 8 Noroeste 0 -- -- 68
2018-01-18 14:00:00 10.4 3 Sudoeste 19 Sudeste 0 -- -- 47
2018-01-18 13:00:00 9.9 8 Sudeste 23 Este 0 -- -- 38
2018-01-18 12:00:00 9 0 Calma 6 Sudoeste 0 -- -- 49
2018-01-18 11:00:00 4.6 3 Noroeste 15 Nordeste 0 -- -- 65
2018-01-18 10:00:00 -1 2 Este 16 Nordeste 0 -- -- 85
2018-01-18 09:00:00 -1.4 6 Noroeste 15 Nordeste 0 -- -- 83
2018-01-18 08:00:00 -2 2 Noroeste 14 Nordeste 0 -- -- 85
2018-01-18 07:00:00 -1.7 0 Calma 14 Este 0 -- -- 83
2018-01-18 06:00:00 -1.8 2 Norte 14 Noroeste 0 -- -- 80
2018-01-18 05:00:00 -1.4 3 Noroeste 17 Oeste 0 -- -- 79
2018-01-18 04:00:00 -1.2 4 Oeste 14 Nordeste 0 -- -- 75
2018-01-18 03:00:00 -1.2 5 Noroeste 16 Nordeste 0 -- -- 78
2018-01-18 02:00:00 -0.8 3 Noroeste 20 Norte 0 -- -- 72
2018-01-18 01:00:00 -1.2 2 Norte 20 Oeste 0 -- -- 77
2018-01-18 00:00:00 -1 4 Noroeste 12 Norte 0 -- -- 78
2018-01-17 23:00:00 -0.2 3 Noroeste 16 Oeste 0 -- -- 71
2018-01-17 22:00:00 0.1 4 Noroeste 14 Oeste 0 -- -- 72
2018-01-17 21:00:00 1.3 4 Noroeste 13 Nordeste 0 -- -- 64
2018-01-17 20:00:00 3.6 5 Noroeste 16 Noroeste 0 -- -- 54
2018-01-17 19:00:00 5.1 9 Noroeste 18 Norte 0 -- -- 45
2018-01-17 18:00:00 7.6 11 Noroeste 29 Norte 0 -- -- 30
2018-01-17 17:00:00 8.3 15 Noroeste 44 Noroeste 0 -- -- 28
2018-01-17 16:00:00 8.5 16 Noroeste 42 Noroeste 0 -- -- 27
2018-01-17 15:00:00 8.4 14 Noroeste 44 Noroeste 0 -- -- 25
2018-01-17 14:00:00 9.7 22 Noroeste 55 Noroeste 0 -- -- 26
2018-01-17 13:00:00 10.5 18 Noroeste 72 Noroeste 0 -- -- 29
2018-01-17 12:00:00 10.1 19 Noroeste 56 Noroeste 0 -- -- 32
2018-01-17 11:00:00 9.7 20 Noroeste 50 Noroeste 0 -- -- 33
2018-01-17 10:00:00 8.7 24 Noroeste 78 Noroeste 0 -- -- 32
2018-01-17 09:00:00 9 32 Noroeste 66 Noroeste 0 -- -- 31
2018-01-17 08:00:00 9 33 Noroeste 85 Noroeste 0 -- -- 33
2018-01-17 07:00:00 9.7 31 Noroeste 80 Norte 0 -- -- 32
2018-01-17 06:00:00 10.4 30 Noroeste 84 Noroeste 0 -- -- 33
2018-01-17 05:00:00 11 21 Norte 55 Norte 0 -- -- 35
2018-01-17 04:00:00 9.8 25 Norte 53 Norte 0 -- -- 48
2018-01-17 03:00:00 2.2 6 Noroeste 19 Noroeste 0 -- -- 95
2018-01-17 02:00:00 1.2 5 Norte 13 Noroeste 0 -- -- 98
2018-01-17 01:00:00 0.9 4 Noroeste 10 Norte 0 -- -- 98
2018-01-17 00:00:00 1 2 Norte 15 Nordeste 0 -- -- 98
2018-01-16 23:00:00 1.4 4 Norte 13 Nordeste 0 -- -- 97
2018-01-16 22:00:00 1.6 5 Noroeste 12 Oeste 0 -- -- 97
2018-01-16 21:00:00 1.7 5 Noroeste 13 Nordeste 0 -- -- 98
2018-01-16 20:00:00 2.1 2 Noroeste 13 Oeste 0 -- -- 95
2018-01-16 19:00:00 2.8 3 Este 14 Nordeste 0 -- -- 94
2018-01-16 18:00:00 4.4 2 Noroeste 13 Oeste 0 -- -- 88
2018-01-16 17:00:00 6.4 3 Noroeste 13 Este 0 -- -- 82
2018-01-16 16:00:00 7.7 3 Norte 17 Este 0 -- -- 77
2018-01-16 15:00:00 9.8 5 Sudeste 17 Noroeste 0 -- -- 66
2018-01-16 14:00:00 12.9 5 Sudeste 17 Sudeste 0 -- -- 58
2018-01-16 13:00:00 11.3 8 Sudeste 21 Este 0 -- -- 58
2018-01-16 12:00:00 7.7 9 Este 19 Este 0 -- -- 65
2018-01-16 11:00:00 3.4 0 Calma 8 Este 0 -- -- 98
2018-01-16 10:00:00 0.3 3 Sur 14 Nordeste 0 -- -- 99
2018-01-16 09:00:00 -0.7 3 Este 14 Nordeste 0 -- -- 99
2018-01-16 08:00:00 -1.5 2 Oeste 14 Este 0 -- -- 99
2018-01-16 07:00:00 -1.6 2 Sudeste 12 Noroeste 0 -- -- 99
2018-01-16 06:00:00 -2.1 2 Oeste 12 Sur 0 -- -- 99
2018-01-16 05:00:00 -2 3 Este 14 Nordeste 0 -- -- 99
2018-01-16 04:00:00 -2 3 Noroeste 12 Nordeste 0 -- -- 100
2018-01-16 03:00:00 -2 2 Noroeste 14 Nordeste 0 -- -- 99
2018-01-16 02:00:00 -1.8 2 Noroeste 14 Nordeste 0 -- -- 99
2018-01-16 01:00:00 -1.3 4 Noroeste 13 Sudoeste 0 -- -- 99
2018-01-16 00:00:00 -1.2 4 Noroeste 14 Nordeste 0 -- -- 99
2018-01-15 23:00:00 -0.9 2 Noroeste 14 Nordeste 0 -- -- 98
2018-01-15 22:00:00 -0.5 2 Este 5 Este 0 -- -- 97
2018-01-15 21:00:00 0.3 0 Calma 8 Noroeste 0 -- -- 95
2018-01-15 20:00:00 1 3 Noroeste 12 Este 0 -- -- 93
2018-01-15 19:00:00 2.3 2 Oeste 8 Noroeste 0 -- -- 90
2018-01-15 18:00:00 2.8 3 Noroeste 6 Noroeste 0 -- -- 87
2018-01-15 17:00:00 4.7 2 Oeste 14 Sudeste 0 -- -- 79
2018-01-15 16:00:00 5.9 5 Sudeste 19 Sudeste 0 -- -- 64
2018-01-15 15:00:00 6.6 6 Sudeste 20 Este 0 -- -- 60
2018-01-15 14:00:00 6.6 5 Sur 15 Sudoeste 0 -- -- 64
2018-01-15 13:00:00 5.8 3 Oeste 13 Nordeste 0 -- -- 68
2018-01-15 12:00:00 3.6 0 Calma 6 Noroeste 0 -- -- 79
2018-01-15 11:00:00 1.3 4 Noroeste 14 Sudeste 0 -- -- 87
2018-01-15 10:00:00 -2.2 3 Nordeste 12 Nordeste 0 -- -- 96
2018-01-15 09:00:00 -2.8 4 Noroeste 17 Noroeste 0 -- -- 94
2018-01-15 08:00:00 -2.4 4 Noroeste 15 Oeste 0 -- -- 94
2018-01-15 07:00:00 -2.6 0 Calma 12 Norte 0 -- -- 97
2018-01-15 06:00:00 -2.2 3 Noroeste 11 Norte 0 -- -- 98
2018-01-15 05:00:00 -1.9 2 Noroeste 15 Noroeste 0 -- -- 96
2018-01-15 04:00:00 -1.6 4 Noroeste 14 Nordeste 0 -- -- 99
2018-01-15 03:00:00 -1.8 0 Calma 14 Noroeste 0 -- -- 99
2018-01-15 02:00:00 -1.2 5 Norte 14 Nordeste 0 -- -- 99
2018-01-15 01:00:00 -1.4 3 Noroeste 14 Nordeste 0 -- -- 99
2018-01-15 00:00:00 -1.2 0 Calma 4 Norte 0 -- -- 99
2018-01-14 23:00:00 -0.2 0 Calma 14 Nordeste 0 -- -- 99
2018-01-14 22:00:00 0.5 2 Norte 14 Nordeste 0 -- -- 98
2018-01-14 21:00:00 0.6 2 Nordeste 13 Nordeste 0 -- -- 98
2018-01-14 20:00:00 1 2 Noroeste 8 Noroeste 0 -- -- 98
2018-01-14 19:00:00 1.7 0 Calma 13 Nordeste 0 -- -- 97
2018-01-14 18:00:00 2.1 0 Calma 12 Noroeste 0 -- -- 95
2018-01-14 17:00:00 2.7 0 Calma 14 Sudeste 0 -- -- 89
2018-01-14 16:00:00 3.6 6 Sudeste 15 Sudeste 0 -- -- 84
2018-01-14 15:00:00 4 7 Sudeste 18 Este 0 -- -- 83
2018-01-14 14:00:00 4.4 6 Sudeste 16 Sudeste 0 -- -- 83
2018-01-14 13:00:00 4.2 5 Sudeste 13 Sudeste 0 -- -- 85
2018-01-14 12:00:00 2.8 2 Oeste 4 Sudeste 0 -- -- 89
2018-01-14 11:00:00 1.8 0 Calma 13 Nordeste 0.2 -- -- 93
2018-01-14 10:00:00 0.5 2 Sudeste 13 Nordeste 0.2 -- -- 98
2018-01-14 09:00:00 -0.9 0 Calma 14 Nordeste 0.2 -- -- 99
2018-01-14 08:00:00 -0.6 0 Calma 13 Nordeste 0.2 -- -- 98
2018-01-14 07:00:00 -0.2 0 Calma 14 Oeste 0.4 -- -- 98
2018-01-14 06:00:00 0.2 0 Calma 3 Norte 0.6 -- -- 98
2018-01-14 05:00:00 0.3 0 Calma 2 Noroeste 0.2 -- -- 96
2018-01-14 04:00:00 0.3 0 Calma 13 Nordeste 0.2 -- -- 96
2018-01-14 03:00:00 0.4 0 Calma 14 Nordeste 0.6 -- -- 96
2018-01-14 02:00:00 0.5 0 Calma 5 Noroeste 0.6 -- -- 94
2018-01-14 01:00:00 0.7 2 Noroeste 16 Noroeste 0 -- -- 91
2018-01-14 00:00:00 1.1 3 Noroeste 22 Norte 0 -- -- 81
2018-01-13 23:00:00 1.6 12 Norte 23 Norte 0 -- -- 77
2018-01-13 22:00:00 0.7 4 Norte 18 Nordeste 0 -- -- 82
2018-01-13 21:00:00 0.5 2 Oeste 8 Oeste 0 -- -- 85
2018-01-13 20:00:00 1.1 4 Noroeste 18 Norte 0 -- -- 79
2018-01-13 19:00:00 1.5 5 Noroeste 9 Norte 0 -- -- 77
2018-01-13 18:00:00 3.1 2 Sur 21 Sur 0 -- -- 65
2018-01-13 17:00:00 4.2 4 Este 17 Este 0 -- -- 57
2018-01-13 16:00:00 5.1 5 Sudeste 19 Este 0 -- -- 51
2018-01-13 15:00:00 5.6 5 Sudeste 22 Sudeste 0 -- -- 46
2018-01-13 14:00:00 7 4 Sudeste 11 Sudeste 0 -- -- 40
2018-01-13 13:00:00 5.3 2 Sur 19 Sudeste 0 -- -- 46
2018-01-13 12:00:00 5 3 Este 11 Noroeste 0 -- -- 45
2018-01-13 11:00:00 1.9 3 Noroeste 16 Oeste 0 -- -- 61
2018-01-13 10:00:00 -1.1 3 Oeste 15 Nordeste 0 -- -- 79
2018-01-13 09:00:00 -2.7 4 Noroeste 16 Oeste 0 -- -- 83
2018-01-13 08:00:00 -3 4 Noroeste 19 Oeste 0 -- -- 83
2018-01-13 07:00:00 -2.4 2 Noroeste 21 Norte 0 -- -- 78
2018-01-13 06:00:00 -2.7 7 Noroeste 19 Oeste 0 -- -- 80
2018-01-13 05:00:00 -3.5 5 Noroeste 15 Nordeste 0 -- -- 83
2018-01-13 04:00:00 -3.7 4 Oeste 17 Oeste 0 -- -- 85
2018-01-13 03:00:00 -3 4 Noroeste 16 Norte 0 -- -- 81
2018-01-13 02:00:00 -2.7 6 Noroeste 15 Noroeste 0 -- -- 80
2018-01-13 01:00:00 -2.9 4 Noroeste 16 Noroeste 0 -- -- 83
2018-01-13 00:00:00 -2.9 5 Noroeste 13 Nordeste 0 -- -- 84
2018-01-12 23:00:00 -2.7 4 Noroeste 13 Oeste 0 -- -- 82
2018-01-12 22:00:00 -2.5 5 Noroeste 14 Nordeste 0 -- -- 84
2018-01-12 21:00:00 -1.9 4 Oeste 13 Nordeste 0 -- -- 82
2018-01-12 20:00:00 -1.4 3 Norte 15 Norte 0 -- -- 81
2018-01-12 19:00:00 0.1 6 Noroeste 14 Nordeste 0 -- -- 72
2018-01-12 18:00:00 0.7 2 Norte 18 Noroeste 0 -- -- 70
2018-01-12 17:00:00 2.3 11 Noroeste 23 Noroeste 0 -- -- 59
2018-01-12 16:00:00 4 10 Noroeste 22 Noroeste 0 -- -- 49
2018-01-12 15:00:00 4.9 9 Noroeste 20 Noroeste 0 -- -- 42
2018-01-12 14:00:00 7.6 6 Noroeste 26 Noroeste 0 -- -- 39
2018-01-12 13:00:00 7.8 12 Noroeste 36 Noroeste 0 -- -- 33
2018-01-12 12:00:00 7.9 12 Noroeste 32 Noroeste 0 -- -- 32
2018-01-12 11:00:00 6.2 12 Oeste 32 Oeste 0 -- -- 36
2018-01-12 10:00:00 -2.2 3 Noroeste 8 Oeste 0 -- -- 85
2018-01-12 09:00:00 -2.7 2 Norte 14 Nordeste 0 -- -- 82
2018-01-12 08:00:00 -2.8 2 Norte 14 Este 0 -- -- 83
2018-01-12 07:00:00 -1.1 2 Sudeste 26 Noroeste 0 -- -- 70
2018-01-12 06:00:00 -0.3 9 Noroeste 32 Noroeste 0 -- -- 65
2018-01-12 05:00:00 0.9 12 Noroeste 28 Norte 0 -- -- 56
2018-01-12 04:00:00 1 14 Norte 30 Noroeste 0 -- -- 57
2018-01-12 03:00:00 -1.9 2 Sudeste 17 Nordeste 0 -- -- 84
2018-01-12 02:00:00 -1 4 Noroeste 27 Norte 0 -- -- 80
2018-01-12 01:00:00 1.5 10 Norte 31 Noroeste 0 -- -- 63
2018-01-12 00:00:00 2.2 13 Norte 28 Norte 0 -- -- 60
2018-01-11 23:00:00 2.2 12 Norte 30 Norte 0 -- -- 60
2018-01-11 22:00:00 2.5 14 Norte 28 Norte 0 -- -- 60
2018-01-11 21:00:00 2.6 9 Norte 25 Norte 0 -- -- 60
2018-01-11 20:00:00 2.8 12 Norte 28 Norte 0 -- -- 64
2018-01-11 19:00:00 3.2 8 Noroeste 27 Norte 0 -- -- 60
2018-01-11 18:00:00 3.7 11 Norte 31 Noroeste 0 -- -- 58
2018-01-11 17:00:00 4.3 12 Noroeste 30 Noroeste 0 -- -- 56
2018-01-11 16:00:00 4.2 8 Noroeste 22 Noroeste 0 -- -- 64
2018-01-11 15:00:00 4.8 9 Noroeste 25 Noroeste 0 -- -- 57
2018-01-11 14:00:00 5.1 10 Noroeste 25 Oeste 0 -- -- 57
2018-01-11 13:00:00 5.7 7 Oeste 27 Noroeste 0 -- -- 61
2018-01-11 12:00:00 5.1 4 Noroeste 12 Oeste 0 -- -- 71
2018-01-11 11:00:00 3.1 2 Sur 14 Este 0 -- -- 86
2018-01-11 10:00:00 -1.1 2 Este 13 Nordeste 0 -- -- 97
2018-01-11 09:00:00 -1.5 3 Noroeste 13 Norte 0 -- -- 98
2018-01-11 08:00:00 -2.5 3 Noroeste 13 Nordeste 0 -- -- 99
2018-01-11 07:00:00 -2.1 0 Calma 14 Nordeste 0 -- -- 99
2018-01-11 06:00:00 -1.6 4 Noroeste 15 Sudoeste 0 -- -- 100
2018-01-11 05:00:00 -1.4 3 Norte 5 Norte 0 -- -- 100
2018-01-11 04:00:00 -0.9 2 Noroeste 6 Norte 0 -- -- 99
2018-01-11 03:00:00 -0.7 0 Calma 14 Nordeste 0 -- -- 99
2018-01-11 02:00:00 0.2 4 Norte 14 Norte 0 -- -- 99
2018-01-11 01:00:00 0.4 3 Noroeste 14 Nordeste 0 -- -- 98
2018-01-11 00:00:00 1 2 Oeste 13 Nordeste 1.2 -- -- 97
2018-01-10 23:00:00 1.8 0 Calma 14 Nordeste 0 -- -- 97
2018-01-10 22:00:00 2 0 Calma 13 Nordeste 0.2 -- -- 96
2018-01-10 21:00:00 2.3 2 Norte 13 Sur 0 -- -- 95
2018-01-10 20:00:00 3 4 Sudeste 27 Este 0 -- -- 88
2018-01-10 19:00:00 2 4 Noroeste 13 Nordeste 0 -- -- 93
2018-01-10 18:00:00 2.9 4 Sudoeste 22 Este 0 -- -- 88
2018-01-10 17:00:00 4.1 4 Sur 22 Sudeste 0.2 -- -- 85
2018-01-10 16:00:00 5.5 9 Sudeste 31 Este 0 -- -- 72
2018-01-10 15:00:00 5.2 8 Este 28 Este 0 -- -- 71
2018-01-10 14:00:00 4.8 5 Oeste 13 Noroeste 0 -- -- 73
2018-01-10 13:00:00 4.1 2 Oeste 6 Sur 0 -- -- 77
2018-01-10 12:00:00 3.6 0 Calma 6 Este 0 -- -- 78
2018-01-10 11:00:00 1.9 3 Oeste 6 Noroeste 0 -- -- 83
2018-01-10 10:00:00 -2.6 0 Calma 14 Nordeste 0 -- -- 95
2018-01-10 09:00:00 -2.5 7 Noroeste 18 Noroeste 0 -- -- 91
2018-01-10 08:00:00 -2.7 3 Noroeste 13 Noroeste 0 -- -- 94
2018-01-10 07:00:00 -2.1 5 Noroeste 15 Noroeste 0 -- -- 92
2018-01-10 06:00:00 -2 3 Noroeste 12 Noroeste 0 -- -- 94
2018-01-10 05:00:00 -1.6 4 Noroeste 14 Noroeste 0 -- -- 93
2018-01-10 04:00:00 -1.3 3 Noroeste 17 Norte 0 -- -- 93
2018-01-10 03:00:00 -0.9 3 Noroeste 14 Nordeste 0 -- -- 96
2018-01-10 02:00:00 0 3 Noroeste 13 Nordeste 0 -- -- 92
2018-01-10 01:00:00 0.5 4 Noroeste 19 Norte 0 -- -- 89
2018-01-10 00:00:00 -0.1 2 Noroeste 15 Oeste 0 -- -- 97
2018-01-09 23:00:00 0.5 2 Sudeste 14 Nordeste 0 -- -- 94
2018-01-09 22:00:00 0.8 5 Noroeste 15 Nordeste 0 -- -- 93
2018-01-09 21:00:00 0.5 2 Este 13 Nordeste 0 -- -- 93
2018-01-09 20:00:00 0.1 0 Calma 8 Norte 0 -- -- 94
2018-01-09 19:00:00 0.3 2 Noroeste 9 Noroeste 0 -- -- 92
2018-01-09 18:00:00 0.9 4 Noroeste 14 Sudoeste 0 -- -- 88
2018-01-09 17:00:00 2.4 2 Sudeste 14 Nordeste 0 -- -- 78
2018-01-09 16:00:00 4.3 6 Sudeste 18 Sudeste 0 -- -- 63
2018-01-09 15:00:00 4.7 6 Sudeste 23 Sur 0 -- -- 56
2018-01-09 14:00:00 4.8 8 Sudeste 22 Sur 0 -- -- 55
2018-01-09 13:00:00 3.2 0 Calma 13 Nordeste 0 -- -- 72
2018-01-09 12:00:00 2.6 0 Calma 13 Nordeste 0 -- -- 73
2018-01-09 11:00:00 0.1 4 Noroeste 13 Nordeste 0 -- -- 79
2018-01-09 10:00:00 -3.8 4 Noroeste 13 Noroeste 0 -- -- 92
2018-01-09 09:00:00 -4.3 5 Oeste 17 Noroeste 0 -- -- 90
2018-01-09 08:00:00 -4.3 6 Noroeste 13 Noroeste 0 -- -- 89
2018-01-09 07:00:00 -4 5 Noroeste 18 Norte 0 -- -- 90
2018-01-09 06:00:00 -3.3 6 Noroeste 17 Noroeste 0 -- -- 88
2018-01-09 05:00:00 -3.1 7 Noroeste 14 Noroeste 0 -- -- 92
2018-01-09 04:00:00 -2.8 6 Noroeste 18 Noroeste 0 -- -- 90
2018-01-09 03:00:00 -2.6 6 Noroeste 18 Norte 0 -- -- 91
2018-01-09 02:00:00 -2.3 4 Noroeste 16 Noroeste 0 -- -- 91
2018-01-09 01:00:00 -2 4 Noroeste 16 Noroeste 0 -- -- 90
2018-01-09 00:00:00 -1.3 8 Noroeste 17 Norte 0 -- -- 89
2018-01-08 23:00:00 -1.7 4 Noroeste 12 Noroeste 0 -- -- 94
2018-01-08 22:00:00 -0.7 6 Noroeste 18 Norte 0 -- -- 91
2018-01-08 21:00:00 -0.5 4 Noroeste 17 Noroeste 0 -- -- 91
2018-01-08 20:00:00 0.1 5 Noroeste 21 Norte 0 -- -- 88
2018-01-08 19:00:00 -0.5 2 Noroeste 13 Norte 0 -- -- 95
2018-01-08 18:00:00 0.3 3 Noroeste 17 Norte 0 -- -- 93
2018-01-08 17:00:00 1.1 3 Noroeste 15 Noroeste 0 -- -- 91
2018-01-08 16:00:00 1.8 4 Noroeste 14 Noroeste 0 -- -- 92
2018-01-08 15:00:00 2.8 3 Noroeste 15 Noroeste 0 -- -- 86
2018-01-08 14:00:00 4.3 3 Oeste 22 Noroeste 0 -- -- 74
2018-01-08 13:00:00 3.2 5 Noroeste 13 Noroeste 0 -- -- 80
2018-01-08 12:00:00 3 2 Oeste 18 Noroeste 0 -- -- 85
2018-01-08 11:00:00 1.2 4 Oeste 17 Noroeste 0 -- -- 89
2018-01-08 10:00:00 -1.5 3 Norte 18 Noroeste 0 -- -- 95
2018-01-08 09:00:00 -1.5 5 Norte 19 Noroeste 0 -- -- 94
2018-01-08 08:00:00 -1 10 Norte 19 Noroeste 0 -- -- 96
2018-01-08 07:00:00 -1.2 3 Noroeste 15 Noroeste 0 -- -- 99
2018-01-08 06:00:00 -1.2 4 Noroeste 15 Norte 0 -- -- 100
2018-01-08 05:00:00 -1.2 3 Noroeste 14 Norte 0 -- -- 100
2018-01-08 04:00:00 -1 0 Calma 13 Sudoeste 0 -- -- 100
2018-01-08 03:00:00 -0.4 0 Calma 13 Nordeste 0 -- -- 100
2018-01-08 02:00:00 -0.1 3 Noroeste 14 Nordeste 0 -- -- 100
2018-01-08 01:00:00 0.4 2 Oeste 14 Nordeste 0 -- -- 99
2018-01-08 00:00:00 0.8 0 Calma 10 Norte 0 -- -- 99
2018-01-07 23:00:00 0.8 3 Noroeste 8 Noroeste 0 -- -- 99
2018-01-07 22:00:00 0.6 3 Oeste 7 Nordeste 0 -- -- 99
2018-01-07 21:00:00 0.5 2 Norte 13 Nordeste 0.2 -- -- 99
2018-01-07 20:00:00 0.6 0 Calma 17 Oeste 0 -- -- 99
2018-01-07 19:00:00 0.6 0 Calma 6 Norte 0 -- -- 99
2018-01-07 18:00:00 1.1 3 Sudeste 9 Norte 0 -- -- 99
2018-01-07 17:00:00 1.4 4 Noroeste 15 Norte 0 -- -- 99
2018-01-07 16:00:00 1.4 5 Noroeste 14 Nordeste 0.2 -- -- 99
2018-01-07 15:00:00 0.8 3 Noroeste 8 Noroeste 1.6 -- -- 99
2018-01-07 14:00:00 0.7 0 Calma 10 Sudeste 2.2 -- -- 97
2018-01-07 13:00:00 2.4 2 Este 13 Este 3 -- -- 94
2018-01-07 12:00:00 3.6 5 Sudeste 17 Sur 0.8 -- -- 97
2018-01-07 11:00:00 3.5 9 Noroeste 24 Norte 0 -- -- 92
2018-01-07 10:00:00 2.6 3 Sudeste 21 Este 0 -- -- 99
2018-01-07 09:00:00 1.2 3 Noroeste 14 Nordeste 0.2 -- -- 99
2018-01-07 08:00:00 1.4 5 Noroeste 12 Norte 0 -- -- 99
2018-01-07 07:00:00 1 5 Noroeste 14 Norte 0.6 -- -- 99
2018-01-07 06:00:00 0.8 4 Noroeste 17 Este 4.2 -- -- 99
2018-01-07 05:00:00 1.7 7 Norte 18 Norte 4 -- -- 98
2018-01-07 04:00:00 1.6 2 Sudeste 25 Norte 0.6 -- -- 98
2018-01-07 03:00:00 1.1 12 Norte 21 Noroeste 3.6 -- -- 98
2018-01-07 02:00:00 1.8 3 Noroeste 24 Sur 6.6 -- -- 94
2018-01-07 01:00:00 4.7 3 Sudeste 15 Norte 4 -- -- 97
2018-01-07 00:00:00 4.8 3 Norte 27 Norte 0.4 -- -- 94
2018-01-06 23:00:00 5.3 14 Norte 33 Norte 0 -- -- 84
2018-01-06 22:00:00 4.4 10 Norte 31 Norte 0 -- -- 89
2018-01-06 21:00:00 4 19 Norte 33 Norte 0.2 -- -- 88
2018-01-06 20:00:00 4.2 15 Noroeste 26 Noroeste 0.4 -- -- 88
2018-01-06 19:00:00 4.4 11 Norte 25 Norte 0 -- -- 89
2018-01-06 18:00:00 4.7 10 Norte 23 Norte 0.2 -- -- 90
2018-01-06 17:00:00 4.9 8 Norte 18 Norte 0 -- -- 92
2018-01-06 16:00:00 5.6 5 Norte 9 Norte 0.2 -- -- 94
2018-01-06 15:00:00 6.1 3 Sur 15 Este 0.2 -- -- 91
2018-01-06 14:00:00 6.2 5 Sudeste 28 Sudeste 0.4 -- -- 91
2018-01-06 13:00:00 5.8 4 Este 12 Norte 0 -- -- 93
2018-01-06 12:00:00 5.1 4 Nordeste 18 Norte 0 -- -- 92
2018-01-06 11:00:00 3.9 5 Noroeste 21 Norte 0 -- -- 94
2018-01-06 10:00:00 3.7 8 Norte 13 Norte 0 -- -- 97
2018-01-06 09:00:00 3 4 Noroeste 15 Nordeste 0 -- -- 98
2018-01-06 08:00:00 3.1 6 Norte 17 Norte 0.2 -- -- 94
2018-01-06 07:00:00 2.9 5 Norte 19 Norte 0.2 -- -- 96
2018-01-06 06:00:00 2.9 11 Norte 22 Norte 0.6 -- -- 94
2018-01-06 05:00:00 3.2 8 Norte 23 Nordeste 1.4 -- -- 94
2018-01-06 04:00:00 3.7 8 Norte 21 Norte 0.4 -- -- 93
2018-01-06 03:00:00 4.4 6 Norte 13 Norte 0.2 -- -- 94
2018-01-06 02:00:00 4.6 5 Noroeste 13 Norte 0.6 -- -- 97
2018-01-06 01:00:00 5 6 Norte 12 Norte 0 -- -- 97
2018-01-06 00:00:00 5.1 3 Sudeste 14 Norte 0.2 -- -- 98
2018-01-05 23:00:00 5.1 0 Calma 14 Oeste 0 -- -- 98
2018-01-05 22:00:00 5.2 2 Oeste 5 Este 0 -- -- 97
2018-01-05 21:00:00 5.4 2 Norte 14 Nordeste 0 -- -- 96
2018-01-05 20:00:00 6.1 0 Calma 12 Norte 0 -- -- 90
2018-01-05 19:00:00 7.1 6 Norte 17 Sudeste 0 -- -- 80
2018-01-05 18:00:00 7.8 4 Sur 22 Este 0 -- -- 72
2018-01-05 17:00:00 8.5 12 Este 26 Este 0 -- -- 70
2018-01-05 16:00:00 9.1 7 Sudeste 22 Este 0 -- -- 66
2018-01-05 15:00:00 9.4 5 Sudeste 24 Este 0 -- -- 64
2018-01-05 14:00:00 9 9 Este 20 Este 0 -- -- 68
2018-01-05 13:00:00 8.3 6 Sudeste 22 Este 0 -- -- 74
2018-01-05 12:00:00 6.3 6 Sudeste 11 Este 0 -- -- 91
2018-01-05 11:00:00 3.8 2 Sudoeste 13 Nordeste 0 -- -- 99
2018-01-05 10:00:00 2.1 2 Noroeste 14 Nordeste 0 -- -- 99
2018-01-05 09:00:00 1 4 Noroeste 8 Noroeste 0 -- -- 99
2018-01-05 08:00:00 0.7 3 Noroeste 13 Nordeste 0 -- -- 99
2018-01-05 07:00:00 0.7 0 Calma 13 Nordeste 0 -- -- 99
2018-01-05 06:00:00 1 0 Calma 6 Noroeste 0 -- -- 99
2018-01-05 05:00:00 1.3 0 Calma 13 Nordeste 0 -- -- 99
2018-01-05 04:00:00 1.9 3 Norte 12 Nordeste 0 -- -- 99
2018-01-05 03:00:00 2.4 2 Sudeste 14 Nordeste 0 -- -- 98
2018-01-05 02:00:00 3.1 2 Norte 6 Oeste 0 -- -- 98
2018-01-05 01:00:00 2.9 0 Calma 14 Nordeste 0 -- -- 97
2018-01-05 00:00:00 2.9 2 Norte 13 Nordeste 0 -- -- 97
2018-01-04 23:00:00 3 4 Noroeste 15 Nordeste 0 -- -- 97
2018-01-04 22:00:00 3.9 3 Nordeste 14 Nordeste 0 -- -- 93
2018-01-04 21:00:00 5 3 Noroeste 6 Noroeste 0 -- -- 92
2018-01-04 20:00:00 5.1 2 Norte 17 Este 0 -- -- 89
2018-01-04 19:00:00 5.6 6 Noroeste 13 Sudoeste 0 -- -- 88
2018-01-04 18:00:00 6 3 Noroeste 14 Noroeste 0 -- -- 84
2018-01-04 17:00:00 8 5 Norte 19 Norte 0 -- -- 77
2018-01-04 16:00:00 10.1 10 Noroeste 29 Este 0 -- -- 70
2018-01-04 15:00:00 9.5 4 Noroeste 10 Noroeste 0 -- -- 78
2018-01-04 14:00:00 10.6 5 Noroeste 10 Noroeste 0 -- -- 70
2018-01-04 13:00:00 12.6 2 Oeste 7 Noroeste 0 -- -- 68
2018-01-04 12:00:00 11.7 2 Sudoeste 11 Noroeste 0 -- -- 69
2018-01-04 11:00:00 8.2 2 Oeste 6 Este 0 -- -- 79
2018-01-04 10:00:00 2.9 2 Este 15 Nordeste 0 -- -- 97
2018-01-04 09:00:00 2.6 3 Noroeste 9 Norte 0 -- -- 96
2018-01-04 08:00:00 2.8 3 Noroeste 8 Norte 0 -- -- 98
2018-01-04 07:00:00 3.1 3 Noroeste 15 Nordeste 0 -- -- 96
2018-01-04 06:00:00 3.9 4 Noroeste 11 Nordeste 0 -- -- 95
2018-01-04 05:00:00 4.4 2 Sur 14 Nordeste 0 -- -- 92
2018-01-04 04:00:00 5.2 3 Noroeste 7 Norte 0 -- -- 89
2018-01-04 03:00:00 6.6 3 Noroeste 13 Noroeste 0 -- -- 85
2018-01-04 02:00:00 9.4 9 Noroeste 17 Noroeste 0 -- -- 71
2018-01-04 01:00:00 8.2 7 Noroeste 17 Noroeste 0 -- -- 78
2018-01-04 00:00:00 6.5 5 Noroeste 13 Nordeste 0 -- -- 87
2018-01-03 23:00:00 6.6 3 Sudoeste 14 Noroeste 0 -- -- 84
2018-01-03 22:00:00 6.6 4 Noroeste 18 Noroeste 0 -- -- 82
2018-01-03 21:00:00 6.5 9 Noroeste 19 Noroeste 0 -- -- 80
2018-01-03 20:00:00 6.5 6 Noroeste 17 Noroeste 0 -- -- 81
2018-01-03 19:00:00 8 6 Norte 19 Noroeste 0 -- -- 72
2018-01-03 18:00:00 9.4 7 Noroeste 19 Noroeste 0 -- -- 66
2018-01-03 17:00:00 11 9 Noroeste 18 Noroeste 0 -- -- 59
2018-01-03 16:00:00 14.1 10 Norte 36 Norte 0 -- -- 43
2018-01-03 15:00:00 14.5 17 Norte 46 Norte 0 -- -- 34
2018-01-03 14:00:00 15.5 15 Norte 40 Norte 0 -- -- 32
2018-01-03 13:00:00 15.6 18 Norte 51 Norte 0 -- -- 32
2018-01-03 12:00:00 10.5 4 Sudeste 19 Sudeste 0 -- -- 83
2018-01-03 11:00:00 7.4 3 Sudeste 16 Nordeste 0 -- -- 98
2018-01-03 10:00:00 4.2 2 Norte 14 Nordeste 0 -- -- 98
2018-01-03 09:00:00 3.5 4 Norte 11 Este 0 -- -- 99
2018-01-03 08:00:00 3.4 3 Nordeste 16 Este 0 -- -- 99
2018-01-03 07:00:00 3.1 4 Sudeste 14 Nordeste 0 -- -- 99
2018-01-03 06:00:00 2.9 4 Noroeste 10 Noroeste 0 -- -- 99
2018-01-03 05:00:00 2.9 3 Norte 19 Este 0 -- -- 99
2018-01-03 04:00:00 3.2 4 Norte 14 Noroeste 0 -- -- 99
2018-01-03 03:00:00 2.9 2 Oeste 8 Norte 0 -- -- 99
2018-01-03 02:00:00 2.6 2 Nordeste 5 Oeste 0 -- -- 99
2018-01-03 01:00:00 2.7 3 Norte 6 Este 0 -- -- 99
2018-01-03 00:00:00 3.1 2 Noroeste 13 Nordeste 0 -- -- 99
2018-01-02 23:00:00 3.6 3 Norte 7 Norte 0 -- -- 99
2018-01-02 22:00:00 4.2 3 Sudeste 14 Noroeste 0 -- -- 99
2018-01-02 21:00:00 4 2 Noroeste 13 Nordeste 0.2 -- -- 98
2018-01-02 20:00:00 3.9 3 Norte 14 Nordeste 0 -- -- 99
2018-01-02 19:00:00 4.2 3 Este 12 Noroeste 0 -- -- 98
2018-01-02 18:00:00 4.3 4 Noroeste 14 Nordeste 0 -- -- 98
2018-01-02 17:00:00 4.9 3 Noroeste 15 Nordeste 0.2 -- -- 98
2018-01-02 16:00:00 5.3 4 Oeste 14 Nordeste 0 -- -- 98
2018-01-02 15:00:00 5.4 4 Norte 14 Nordeste 0.2 -- -- 97
2018-01-02 14:00:00 5.3 2 Este 16 Nordeste 1.2 -- -- 96
2018-01-02 13:00:00 4.9 5 Noroeste 14 Nordeste 0.8 -- -- 96
2018-01-02 12:00:00 4.1 3 Norte 9 Noroeste 0.8 -- -- 96
2018-01-02 11:00:00 3.4 5 Noroeste 14 Nordeste 0 -- -- 92
2018-01-02 10:00:00 2.7 3 Este 16 Noroeste 0 -- -- 92
2018-01-02 09:00:00 2.3 5 Noroeste 14 Nordeste 0 -- -- 90
2018-01-02 08:00:00 1.8 4 Noroeste 13 Nordeste 0 -- -- 92
2018-01-02 07:00:00 2 2 Sur 13 Norte 0 -- -- 88
2018-01-02 06:00:00 2.1 5 Noroeste 19 Nordeste 0 -- -- 87
2018-01-02 05:00:00 2.8 8 Noroeste 21 Norte 0 -- -- 81
2018-01-02 04:00:00 2.8 5 Noroeste 24 Este 0 -- -- 81
2018-01-02 03:00:00 5 8 Noroeste 41 Noroeste 0 -- -- 60
2018-01-02 02:00:00 6.5 19 Noroeste 68 Noroeste 0.2 -- -- 45
2018-01-02 01:00:00 7.7 22 Noroeste 59 Noroeste 0 -- -- 40
2018-01-02 00:00:00 4.1 8 Sudeste 37 Noroeste 0 -- -- 66
2018-01-01 23:00:00 5.4 14 Noroeste 42 Norte 0 -- -- 57
2018-01-01 22:00:00 0.9 5 Norte 13 Nordeste 0 -- -- 99
2018-01-01 21:00:00 1 3 Sudoeste 14 Nordeste 0.8 -- -- 98
2018-01-01 20:00:00 1.1 3 Noroeste 15 Nordeste 0.8 -- -- 98
2018-01-01 19:00:00 1.5 6 Norte 17 Sur 2 -- -- 96
2018-01-01 18:00:00 2.7 9 Sudeste 27 Este 2 -- -- 90
2018-01-01 17:00:00 3.7 5 Sudeste 32 Este 0.4 -- -- 85
2018-01-01 16:00:00 5.7 13 Este 37 Este 0 -- -- 63
2018-01-01 15:00:00 5.9 11 Sudeste 36 Este 0 -- -- 60
2018-01-01 14:00:00 6 7 Sudeste 31 Sudeste 0 -- -- 60
2018-01-01 13:00:00 5.4 12 Sudeste 39 Este 0 -- -- 60
2018-01-01 12:00:00 5 22 Este 44 Sudeste 0 -- -- 57
2018-01-01 11:00:00 3.4 3 Sudeste 17 Este 0 -- -- 75
2018-01-01 10:00:00 -1.5 0 Calma 14 Nordeste 0 -- -- 99
2018-01-01 09:00:00 -1.4 3 Norte 14 Nordeste 0 -- -- 99
2018-01-01 08:00:00 -1.4 3 Sudeste 16 Nordeste 0 -- -- 98
2018-01-01 07:00:00 -0.8 4 Noroeste 14 Nordeste 0 -- -- 96
2018-01-01 06:00:00 1.1 3 Este 12 Nordeste 0 -- -- 90
2018-01-01 05:00:00 1.5 3 Oeste 17 Noroeste 0 -- -- 88
2018-01-01 04:00:00 0.9 4 Noroeste 14 Nordeste 0 -- -- 91
2018-01-01 03:00:00 0.4 3 Nordeste 14 Nordeste 0 -- -- 92
2018-01-01 02:00:00 0.9 3 Noroeste 25 Nordeste 0.2 -- -- 86
2018-01-01 01:00:00 2.8 10 Noroeste 27 Norte 0 -- -- 62
2018-01-01 00:00:00 2.3 9 Norte 23 Norte 0 -- -- 87
2017-12-31 23:00:00 2.4 3 Noroeste 17 Norte 0 -- -- 97
2017-12-31 22:00:00 2.8 2 Sudeste 21 Norte 0.4 -- -- 97
2017-12-31 21:00:00 2.5 3 Noroeste 17 Norte 0.2 -- -- 97
2017-12-31 20:00:00 2.2 3 Noroeste 18 Este 0 -- -- 96
2017-12-31 19:00:00 2.3 3 Sudoeste 14 Nordeste 0 -- -- 94
2017-12-31 18:00:00 3.3 5 Noroeste 22 Norte 0 -- -- 89
2017-12-31 17:00:00 4.4 5 Norte 21 Este 0 -- -- 88
2017-12-31 16:00:00 4.1 3 Norte 9 Noroeste 0 -- -- 88
2017-12-31 15:00:00 4.7 3 Noroeste 14 Nordeste 0 -- -- 86
2017-12-31 14:00:00 4.2 4 Noroeste 14 Nordeste 0 -- -- 85
2017-12-31 13:00:00 4.4 0 Calma 14 Nordeste 0 -- -- 86
2017-12-31 12:00:00 2.7 4 Noroeste 13 Nordeste 0 -- -- 86
2017-12-31 11:00:00 1.5 3 Noroeste 14 Nordeste 0 -- -- 92
2017-12-31 10:00:00 0.3 3 Noroeste 14 Nordeste 0 -- -- 95
2017-12-31 09:00:00 -0.9 3 Noroeste 16 Noroeste 0 -- -- 98
2017-12-31 08:00:00 -1.1 3 Noroeste 15 Nordeste 0 -- -- 98
2017-12-31 07:00:00 -1.1 3 Nordeste 14 Nordeste 0 -- -- 97
2017-12-31 06:00:00 -0.6 5 Oeste 16 Noroeste 0 -- -- 93
2017-12-31 05:00:00 -1.1 5 Noroeste 16 Norte 0 -- -- 97
2017-12-31 04:00:00 -0.3 2 Norte 26 Norte 0 -- -- 94
2017-12-31 03:00:00 -1.1 3 Sudoeste 14 Nordeste 0 -- -- 99
2017-12-31 02:00:00 -0.5 3 Noroeste 19 Norte 0 -- -- 98
2017-12-31 01:00:00 -0.2 4 Noroeste 19 Norte 0 -- -- 98